Time;durP1;ratioP1;P1;durP2;ratioP2;P2;SDS_P1;SDS_P2;PMS_P1;PMS_P2;Temp;Humidity;BMP_temperature;BMP_pressure;BME280_temperature;BME280_humidity;BME280_pressure;Samples;Min_cycle;Max_cycle;Signal;HPM_P1;HPM_P2
2022/06/09 00:00:31;;;;;;;202.25;150.60;;;19.40;83.20;;;;;;5035102;27;20091;-69
2022/06/09 00:03:05;;;;;;;206.45;150.80;;;19.40;83.20;;;;;;5023122;27;20037;-69
2022/06/09 00:05:32;;;;;;;212.07;156.00;;;19.30;83.00;;;;;;5025275;27;20480;-69
2022/06/09 00:08:02;;;;;;;210.65;153.15;;;19.40;82.80;;;;;;5037601;27;20082;-69
2022/06/09 00:10:32;;;;;;;202.90;148.25;;;19.30;82.80;;;;;;5023395;27;20105;-69
2022/06/09 00:12:59;;;;;;;207.73;149.15;;;19.30;82.70;;;;;;5024132;27;20484;-69
2022/06/09 00:15:27;;;;;;;224.13;150.68;;;19.30;82.70;;;;;;5029079;27;20033;-69
2022/06/09 00:17:54;;;;;;;223.85;159.32;;;19.30;82.70;;;;;;5040851;27;20036;-69
2022/06/09 00:20:21;;;;;;;218.45;153.95;;;19.30;82.60;;;;;;5022289;27;20096;-69
2022/06/09 00:22:47;;;;;;;209.65;150.20;;;19.30;82.50;;;;;;5034352;27;20117;-69
2022/06/09 00:25:14;;;;;;;224.88;156.38;;;19.20;82.50;;;;;;5036567;27;20067;-68
2022/06/09 00:27:41;;;;;;;225.77;161.75;;;19.20;82.50;;;;;;5040707;27;20415;-69
2022/06/09 00:30:10;;;;;;;213.98;155.57;;;19.20;82.70;;;;;;5022557;28;20150;-69
2022/06/09 00:32:37;;;;;;;204.60;149.93;;;19.20;82.90;;;;;;5026757;27;20040;-69
2022/06/09 00:35:03;;;;;;;209.82;152.82;;;19.20;83.00;;;;;;5047226;27;20390;-69
2022/06/09 00:37:30;;;;;;;207.57;149.45;;;19.20;83.00;;;;;;5025147;27;20118;-69
2022/06/09 00:39:57;;;;;;;205.75;147.40;;;19.20;82.90;;;;;;5027002;27;20060;-69
2022/06/09 00:42:24;;;;;;;173.40;125.90;;;19.20;82.80;;;;;;5020620;27;20034;-69
2022/06/09 00:44:50;;;;;;;151.60;108.57;;;19.20;82.80;;;;;;5039026;27;20065;-69
2022/06/09 00:47:29;;;;;;;129.63;91.38;;;19.20;82.80;;;;;;5019572;28;20030;-69
2022/06/09 00:50:26;;;;;;;108.82;81.88;;;19.20;83.10;;;;;;5024676;28;20034;-69
2022/06/09 00:52:58;;;;;;;126.00;89.53;;;19.20;83.20;;;;;;5038672;27;20040;-69
2022/06/09 00:55:28;;;;;;;148.18;107.13;;;19.20;83.30;;;;;;5028367;27;20047;-69
2022/06/09 00:58:03;;;;;;;171.93;119.43;;;19.10;83.30;;;;;;5038152;28;20492;-69
2022/06/09 01:00:42;;;;;;;186.20;125.03;;;19.20;83.40;;;;;;5025305;27;20394;-69
2022/06/09 01:03:09;;;;;;;194.75;121.18;;;19.20;83.40;;;;;;5031842;28;20031;-69
2022/06/09 01:05:40;;;;;;;160.27;116.93;;;19.10;83.50;;;;;;5035693;27;20052;-69
2022/06/09 01:08:07;;;;;;;176.98;120.93;;;19.10;83.70;;;;;;5033449;27;20038;-69
2022/06/09 01:10:34;;;;;;;173.38;119.32;;;19.10;83.70;;;;;;5020329;27;20026;-69
2022/06/09 01:13:00;;;;;;;167.45;119.40;;;19.10;83.60;;;;;;5023039;27;20043;-69
2022/06/09 01:16:01;;;;;;;161.10;115.63;;;19.10;83.60;;;;;;5028369;28;20026;-69
2022/06/09 01:19:12;;;;;;;170.18;118.47;;;19.00;83.50;;;;;;5031457;27;20041;-69
2022/06/09 01:22:12;;;;;;;164.45;121.40;;;19.10;83.50;;;;;;5007220;28;20566;-70
2022/06/09 01:24:48;;;;;;;184.35;127.13;;;19.00;83.30;;;;;;5032996;27;20039;-70
2022/06/09 01:27:35;;;;;;;193.85;126.93;;;19.00;83.30;;;;;;5022530;28;20550;-70
2022/06/09 01:30:20;;;;;;;191.93;131.48;;;19.00;83.20;;;;;;5009611;27;20362;-70
2022/06/09 01:33:03;;;;;;;178.38;125.93;;;19.00;83.00;;;;;;5023641;28;20077;-70
2022/06/09 01:35:55;;;;;;;183.52;126.18;;;18.90;82.90;;;;;;5032243;27;20025;-70
2022/06/09 01:38:22;;;;;;;179.65;130.60;;;18.90;82.90;;;;;;5025020;28;20035;-68
2022/06/09 01:40:49;;;;;;;192.52;131.98;;;18.90;82.70;;;;;;5039523;28;20507;-69
2022/06/09 01:43:15;;;;;;;189.68;133.25;;;18.90;82.80;;;;;;5029913;28;20064;-69
2022/06/09 01:45:52;;;;;;;193.77;139.35;;;18.80;82.80;;;;;;5023953;28;20083;-70
2022/06/09 01:48:20;;;;;;;207.32;145.77;;;18.90;82.80;;;;;;5020048;28;20042;-69
2022/06/09 01:50:56;;;;;;;236.77;164.52;;;18.90;82.80;;;;;;5018255;28;20060;-68
2022/06/09 01:53:35;;;;;;;241.27;169.52;;;18.80;82.80;;;;;;5024711;28;20034;-69
2022/06/09 01:56:17;;;;;;;253.88;175.65;;;18.80;82.80;;;;;;5024371;28;20026;-69
2022/06/09 01:59:03;;;;;;;270.77;186.00;;;18.80;82.70;;;;;;5044177;28;20485;-69
2022/06/09 02:01:43;;;;;;;266.10;191.40;;;18.80;82.60;;;;;;5024477;27;20116;-69
2022/06/09 02:04:20;;;;;;;269.50;192.65;;;18.80;82.30;;;;;;5022171;27;20454;-69
2022/06/09 02:06:47;;;;;;;268.85;196.98;;;18.80;82.20;;;;;;5047192;27;20041;-69
2022/06/09 02:09:16;;;;;;;269.48;194.77;;;18.70;82.10;;;;;;5027692;27;20035;-69
2022/06/09 02:11:54;;;;;;;279.35;199.40;;;18.70;82.00;;;;;;5027315;27;20044;-69
2022/06/09 02:14:24;;;;;;;276.77;200.82;;;18.70;81.80;;;;;;5028780;27;20038;-69
2022/06/09 02:16:51;;;;;;;261.42;188.13;;;18.60;81.80;;;;;;5037293;27;20384;-69
2022/06/09 02:19:18;;;;;;;236.93;172.65;;;18.70;81.80;;;;;;5030695;27;20407;-69
2022/06/09 02:21:44;;;;;;;237.38;167.77;;;18.70;81.70;;;;;;5036366;27;20042;-69
2022/06/09 02:24:11;;;;;;;239.38;162.15;;;18.70;81.60;;;;;;5025183;27;20041;-68
2022/06/09 02:26:37;;;;;;;220.63;157.23;;;18.60;81.50;;;;;;5060636;27;20090;-69
2022/06/09 02:29:04;;;;;;;223.68;152.88;;;18.60;81.50;;;;;;5024006;27;20038;-69
2022/06/09 02:31:30;;;;;;;201.18;146.25;;;18.60;81.80;;;;;;5033021;27;20026;-68
2022/06/09 02:33:57;;;;;;;202.35;139.77;;;18.60;81.80;;;;;;5024495;27;20040;-68
2022/06/09 02:36:24;;;;;;;200.15;141.40;;;18.60;81.60;;;;;;5036902;27;20029;-69
2022/06/09 02:38:51;;;;;;;187.65;130.75;;;18.60;81.40;;;;;;5027155;27;20037;-69
2022/06/09 02:41:17;;;;;;;166.68;116.68;;;18.50;81.20;;;;;;5047740;27;20434;-69
2022/06/09 02:43:44;;;;;;;146.20;106.72;;;18.50;81.40;;;;;;5030082;27;20034;-69
2022/06/09 02:46:11;;;;;;;126.38;91.53;;;18.50;81.60;;;;;;5024778;27;20064;-71
2022/06/09 02:48:38;;;;;;;115.07;84.20;;;18.50;81.70;;;;;;5023688;27;20081;-70
2022/06/09 02:51:23;;;;;;;96.43;68.80;;;18.50;81.90;;;;;;5026582;27;20025;-70
2022/06/09 02:53:49;;;;;;;88.00;58.95;;;18.50;81.90;;;;;;5043007;27;20492;-69
2022/06/09 02:56:16;;;;;;;70.80;52.63;;;18.40;82.00;;;;;;5028440;27;20048;-69
2022/06/09 02:58:42;;;;;;;64.68;47.10;;;18.50;82.20;;;;;;5044937;27;20119;-69
2022/06/09 03:01:09;;;;;;;56.90;41.67;;;18.50;82.60;;;;;;5042081;27;20063;-69
2022/06/09 03:03:35;;;;;;;61.80;39.28;;;18.50;82.90;;;;;;5025768;27;20116;-69
2022/06/09 03:06:03;;;;;;;57.40;37.80;;;18.50;83.10;;;;;;5020115;27;20034;-69
2022/06/09 03:08:30;;;;;;;53.08;35.17;;;18.50;83.30;;;;;;5035259;27;20058;-69
2022/06/09 03:10:57;;;;;;;50.80;35.55;;;18.50;83.50;;;;;;5024609;27;20034;-69
2022/06/09 03:13:24;;;;;;;49.72;37.85;;;18.50;83.60;;;;;;5026624;27;20548;-70
2022/06/09 03:15:51;;;;;;;52.90;36.47;;;18.50;83.60;;;;;;5038376;27;20033;-69
2022/06/09 03:18:19;;;;;;;48.90;36.25;;;18.40;83.60;;;;;;5029276;28;20037;-69
2022/06/09 03:20:46;;;;;;;48.95;36.63;;;18.50;83.80;;;;;;5025587;27;20480;-69
2022/06/09 03:23:13;;;;;;;67.90;40.03;;;18.50;84.00;;;;;;5020787;27;20079;-70
2022/06/09 03:25:39;;;;;;;59.65;39.40;;;18.50;84.00;;;;;;5043408;27;20039;-70
2022/06/09 03:28:07;;;;;;;58.28;40.03;;;18.50;84.20;;;;;;5032917;27;20038;-69
2022/06/09 03:30:34;;;;;;;48.90;35.58;;;18.50;84.20;;;;;;5035571;27;20549;-70
2022/06/09 03:33:01;;;;;;;51.33;34.50;;;18.50;84.30;;;;;;5018569;27;20519;-70
2022/06/09 03:35:28;;;;;;;46.15;32.13;;;18.50;84.40;;;;;;5042553;27;20029;-70
2022/06/09 03:37:56;;;;;;;48.65;32.35;;;18.50;84.50;;;;;;5028773;27;20091;-70
2022/06/09 03:40:24;;;;;;;49.45;28.77;;;18.50;84.60;;;;;;5029786;27;20151;-70
2022/06/09 03:42:51;;;;;;;52.03;30.27;;;18.50;84.70;;;;;;5025749;27;20057;-70
2022/06/09 03:45:18;;;;;;;48.28;32.00;;;18.50;84.80;;;;;;5033108;27;20592;-69
2022/06/09 03:47:45;;;;;;;48.63;32.17;;;18.50;84.80;;;;;;5027158;28;20034;-69
2022/06/09 03:50:17;;;;;;;57.53;33.42;;;18.50;84.60;;;;;;5029349;27;20033;-70
2022/06/09 03:52:44;;;;;;;45.67;33.45;;;18.50;84.40;;;;;;5030866;27;20057;-69
2022/06/09 03:55:11;;;;;;;53.08;34.17;;;18.50;84.20;;;;;;5026682;27;20544;-70
2022/06/09 03:57:37;;;;;;;55.40;33.08;;;18.50;83.90;;;;;;5023142;27;20034;-70
2022/06/09 04:00:09;;;;;;;56.28;34.58;;;18.50;83.70;;;;;;5022872;27;20036;-70
2022/06/09 04:02:35;;;;;;;48.67;33.05;;;18.40;83.50;;;;;;5025849;28;20461;-70
2022/06/09 04:05:02;;;;;;;53.63;33.25;;;18.40;83.40;;;;;;5023775;28;20046;-69
2022/06/09 04:07:29;;;;;;;54.63;33.97;;;18.40;83.40;;;;;;5038766;27;20049;-69
2022/06/09 04:09:55;;;;;;;53.72;33.35;;;18.40;83.30;;;;;;5034836;27;20068;-70
2022/06/09 04:12:22;;;;;;;48.85;34.25;;;18.40;83.20;;;;;;5026320;27;20030;-72
2022/06/09 04:14:48;;;;;;;52.35;34.17;;;18.30;83.00;;;;;;5021835;28;20029;-71
2022/06/09 04:17:15;;;;;;;52.30;32.17;;;18.30;82.20;;;;;;5036926;27;20481;-70
2022/06/09 04:19:41;;;;;;;64.53;44.38;;;18.30;82.50;;;;;;5027027;27;20030;-71
2022/06/09 04:22:08;;;;;;;66.55;45.67;;;18.20;82.80;;;;;;5036783;27;20522;-69
2022/06/09 04:24:35;;;;;;;65.68;39.30;;;18.20;83.00;;;;;;5031386;27;20037;-69
2022/06/09 04:27:02;;;;;;;61.00;35.78;;;18.20;83.00;;;;;;5026510;27;20054;-69
2022/06/09 04:29:29;;;;;;;48.42;32.03;;;18.20;82.80;;;;;;5020538;27;20383;-69
2022/06/09 04:31:56;;;;;;;44.63;28.02;;;18.20;82.40;;;;;;5024223;28;20025;-70
2022/06/09 04:34:22;;;;;;;44.55;26.55;;;18.20;82.20;;;;;;5023564;27;20034;-70
2022/06/09 04:36:49;;;;;;;37.20;22.67;;;18.20;81.90;;;;;;5028108;28;20060;-70
2022/06/09 04:39:15;;;;;;;64.00;28.02;;;18.20;81.40;;;;;;5027036;27;20066;-71
2022/06/09 04:41:42;;;;;;;66.70;44.83;;;18.20;80.90;;;;;;5029725;27;20479;-69
2022/06/09 04:44:08;;;;;;;66.82;45.25;;;18.20;81.30;;;;;;5029544;28;20037;-70
2022/06/09 04:46:35;;;;;;;50.65;34.15;;;18.10;81.40;;;;;;5031114;27;20029;-70
2022/06/09 04:49:02;;;;;;;38.10;24.17;;;18.20;81.40;;;;;;5035326;27;20034;-71
2022/06/09 04:51:31;;;;;;;35.63;19.98;;;18.10;81.20;;;;;;5022132;27;20052;-69
2022/06/09 04:53:57;;;;;;;25.40;16.23;;;18.10;81.60;;;;;;5029337;27;20037;-69
2022/06/09 04:56:24;;;;;;;27.98;15.55;;;18.10;82.00;;;;;;5037973;27;20067;-70
2022/06/09 04:58:51;;;;;;;26.55;15.52;;;18.10;81.60;;;;;;5026109;27;20068;-70
2022/06/09 05:01:24;;;;;;;25.33;14.93;;;18.10;80.90;;;;;;5026456;27;20033;-70
2022/06/09 05:03:51;;;;;;;19.13;11.50;;;18.10;80.50;;;;;;5032314;27;20041;-70
2022/06/09 05:06:21;;;;;;;15.65;9.93;;;18.10;80.20;;;;;;5029818;27;20109;-70
2022/06/09 05:08:48;;;;;;;22.13;10.88;;;18.00;79.70;;;;;;5021237;28;20022;-70
2022/06/09 05:11:15;;;;;;;19.13;10.13;;;18.00;79.50;;;;;;5025551;27;20033;-70
2022/06/09 05:13:41;;;;;;;20.75;8.55;;;18.00;79.30;;;;;;5028184;28;20029;-70
2022/06/09 05:16:09;;;;;;;19.35;8.65;;;18.00;79.30;;;;;;5046470;28;20030;-70
2022/06/09 05:18:40;;;;;;;17.73;8.70;;;18.00;79.10;;;;;;5034223;28;20037;-70
2022/06/09 05:21:09;;;;;;;18.02;7.78;;;18.00;79.10;;;;;;5027295;28;20057;-70
2022/06/09 05:23:37;;;;;;;22.42;7.95;;;18.00;79.10;;;;;;5027334;28;20025;-70
2022/06/09 05:26:05;;;;;;;13.95;7.70;;;17.90;79.00;;;;;;5028222;27;20117;-70
2022/06/09 05:28:32;;;;;;;14.43;6.85;;;17.90;79.00;;;;;;5024270;27;20033;-70
2022/06/09 05:30:59;;;;;;;16.98;7.47;;;17.90;79.00;;;;;;5030911;28;20029;-70
2022/06/09 05:33:26;;;;;;;16.90;7.40;;;17.90;79.10;;;;;;5022389;27;20485;-70
2022/06/09 05:35:53;;;;;;;26.30;8.45;;;17.80;79.10;;;;;;5025499;28;20327;-70
2022/06/09 05:46:35;;;;;;;17.10;6.40;;;17.80;79.50;;;;;;5026833;28;20044;-70
2022/06/09 05:49:03;;;;;;;13.43;5.93;;;17.70;79.50;;;;;;5037514;28;20460;-70
2022/06/09 05:51:31;;;;;;;12.35;5.88;;;17.80;79.50;;;;;;5026139;28;20038;-70
2022/06/09 05:53:58;;;;;;;14.55;5.95;;;17.80;79.30;;;;;;5048187;28;20108;-70
2022/06/09 05:56:25;;;;;;;12.35;5.05;;;17.80;79.30;;;;;;5024129;28;20482;-70
2022/06/09 05:58:51;;;;;;;20.88;5.38;;;17.80;79.20;;;;;;5040420;28;20407;-70
2022/06/09 06:01:18;;;;;;;11.48;4.20;;;17.80;79.20;;;;;;5025294;28;20037;-70
2022/06/09 06:03:44;;;;;;;11.93;4.25;;;17.70;79.10;;;;;;5044678;28;20033;-70
2022/06/09 06:08:56;;;;;;;16.52;3.78;;;17.70;79.00;;;;;;5022294;28;20055;-70
2022/06/09 06:11:23;;;;;;;13.52;3.47;;;17.70;78.90;;;;;;5039105;28;20026;-70
2022/06/09 06:13:50;;;;;;;10.00;3.75;;;17.60;78.90;;;;;;5028210;28;20412;-70
2022/06/09 06:16:16;;;;;;;10.35;3.30;;;17.70;79.00;;;;;;5026291;28;20033;-70
2022/06/09 06:18:43;;;;;;;11.73;3.17;;;17.60;79.00;;;;;;5044729;28;20030;-70
2022/06/09 06:21:09;;;;;;;11.27;2.70;;;17.70;79.10;;;;;;5032144;28;20037;-70
2022/06/09 06:23:36;;;;;;;9.90;3.42;;;17.60;79.30;;;;;;5027305;28;20021;-70
2022/06/09 06:26:03;;;;;;;7.00;2.58;;;17.60;79.20;;;;;;5024670;28;20653;-70
2022/06/09 06:28:30;;;;;;;13.63;3.08;;;17.60;79.20;;;;;;5027298;28;20078;-71
2022/06/09 06:30:57;;;;;;;9.55;2.72;;;17.60;79.30;;;;;;5041167;28;20441;-70
2022/06/09 06:33:23;;;;;;;8.60;2.50;;;17.60;79.30;;;;;;5028412;28;20121;-70
2022/06/09 06:35:50;;;;;;;17.30;3.05;;;17.60;79.50;;;;;;5029185;28;20028;-70
2022/06/09 06:38:17;;;;;;;11.02;2.72;;;17.60;79.60;;;;;;5032469;28;20037;-70
2022/06/09 06:40:44;;;;;;;10.05;2.63;;;17.60;79.80;;;;;;5036642;28;20025;-70
2022/06/09 06:43:10;;;;;;;13.80;2.70;;;17.60;79.80;;;;;;5035467;28;20033;-71
2022/06/09 06:45:37;;;;;;;10.73;2.90;;;17.60;79.90;;;;;;5017362;28;20143;-70
2022/06/09 06:48:04;;;;;;;9.32;3.13;;;17.60;80.00;;;;;;5036771;27;20038;-70
2022/06/09 06:50:30;;;;;;;10.65;3.15;;;17.60;80.10;;;;;;5024823;27;20029;-70
2022/06/09 06:52:57;;;;;;;8.82;4.38;;;17.70;80.20;;;;;;5045814;28;20031;-70
2022/06/09 06:55:23;;;;;;;7.93;2.67;;;17.60;80.40;;;;;;5033360;27;20075;-70
2022/06/09 06:57:50;;;;;;;9.15;2.83;;;17.70;80.60;;;;;;5033105;27;20098;-70
2022/06/09 07:00:20;;;;;;;11.18;3.42;;;17.60;80.60;;;;;;5025147;27;20029;-70
2022/06/09 07:02:48;;;;;;;9.93;3.03;;;17.60;80.70;;;;;;5022189;27;20023;-70
2022/06/09 07:05:15;;;;;;;11.20;3.80;;;17.60;80.80;;;;;;5028092;27;20038;-70
2022/06/09 07:07:42;;;;;;;11.45;3.75;;;17.70;81.00;;;;;;5029473;27;20530;-70
2022/06/09 07:10:10;;;;;;;10.35;3.97;;;17.70;81.20;;;;;;5028300;28;20037;-70
2022/06/09 07:12:38;;;;;;;15.15;4.45;;;17.70;81.30;;;;;;5032188;27;20512;-70
2022/06/09 07:15:06;;;;;;;12.38;4.95;;;17.70;81.50;;;;;;5028165;27;20133;-70
2022/06/09 07:17:32;;;;;;;13.73;4.75;;;17.70;81.80;;;;;;5026328;27;20119;-70
2022/06/09 07:19:59;;;;;;;21.58;5.65;;;17.70;81.80;;;;;;5026614;27;20696;-70
2022/06/09 07:22:25;;;;;;;15.45;4.88;;;17.70;81.90;;;;;;5032396;27;20041;-70
2022/06/09 07:24:55;;;;;;;12.95;4.50;;;17.70;82.10;;;;;;5045425;27;20075;-71
2022/06/09 07:27:23;;;;;;;12.32;4.90;;;17.80;82.20;;;;;;5023643;27;20488;-71
2022/06/09 07:29:50;;;;;;;16.00;5.90;;;17.80;82.30;;;;;;5038796;27;20031;-71
2022/06/09 07:32:17;;;;;;;12.68;5.63;;;17.80;82.40;;;;;;5020464;27;20079;-70
2022/06/09 07:34:44;;;;;;;16.52;5.38;;;17.80;82.60;;;;;;5030152;27;20033;-71
2022/06/09 07:37:12;;;;;;;21.85;6.13;;;17.80;82.60;;;;;;5022880;27;20040;-71
2022/06/09 07:39:38;;;;;;;15.45;5.95;;;17.90;82.70;;;;;;5034680;27;20026;-71
2022/06/09 07:42:05;;;;;;;18.75;6.25;;;17.90;82.70;;;;;;5040605;27;20030;-70
2022/06/09 07:44:32;;;;;;;13.65;5.85;;;17.90;82.70;;;;;;5037167;27;20045;-70
2022/06/09 07:46:58;;;;;;;15.30;6.68;;;18.00;82.70;;;;;;5047603;27;20037;-71
2022/06/09 07:49:25;;;;;;;17.20;5.50;;;18.00;82.70;;;;;;5023794;27;20041;-71
2022/06/09 07:51:52;;;;;;;29.50;6.68;;;18.00;82.60;;;;;;5039884;27;20032;-71
2022/06/09 07:54:19;;;;;;;23.38;6.53;;;18.00;82.60;;;;;;5031726;27;20434;-71
2022/06/09 07:56:45;;;;;;;13.82;6.05;;;18.10;82.70;;;;;;5025392;27;20037;-71
2022/06/09 07:59:12;;;;;;;16.25;6.70;;;18.10;82.70;;;;;;5020148;27;20053;-71
2022/06/09 08:01:39;;;;;;;11.13;6.57;;;18.10;82.80;;;;;;5026486;27;20065;-71
2022/06/09 08:04:06;;;;;;;15.93;7.03;;;18.10;82.80;;;;;;5021663;28;20041;-71
2022/06/09 08:06:33;;;;;;;22.80;8.00;;;18.20;82.80;;;;;;5040080;27;20042;-71
2022/06/09 08:09:01;;;;;;;23.88;8.52;;;18.20;82.90;;;;;;5035054;27;20029;-71
2022/06/09 08:11:33;;;;;;;21.52;6.97;;;18.30;83.10;;;;;;5027592;27;20057;-71
2022/06/09 08:14:02;;;;;;;21.50;7.97;;;18.30;82.90;;;;;;5019727;27;20037;-71
2022/06/09 08:16:29;;;;;;;13.55;6.32;;;18.30;82.80;;;;;;5039840;27;20030;-71
2022/06/09 08:18:57;;;;;;;14.15;5.85;;;18.40;82.70;;;;;;5024012;27;20499;-71
2022/06/09 08:21:24;;;;;;;13.15;6.35;;;18.40;82.60;;;;;;5027079;27;20381;-71
2022/06/09 08:23:51;;;;;;;18.08;6.68;;;18.40;82.50;;;;;;5025481;27;20109;-71
2022/06/09 08:26:17;;;;;;;15.30;5.13;;;18.40;82.40;;;;;;5042363;27;20382;-71
2022/06/09 08:28:44;;;;;;;15.93;5.55;;;18.50;82.30;;;;;;5034685;27;20026;-71
2022/06/09 08:31:11;;;;;;;18.30;5.20;;;18.50;82.10;;;;;;5025698;27;20029;-71
2022/06/09 08:33:38;;;;;;;9.18;4.65;;;18.50;81.90;;;;;;5040091;27;20026;-71
2022/06/09 08:36:05;;;;;;;8.90;4.53;;;18.60;81.80;;;;;;5024969;27;20040;-71
2022/06/09 08:38:31;;;;;;;14.18;5.15;;;18.60;81.60;;;;;;5027709;27;20108;-71
2022/06/09 08:41:23;;;;;;;8.82;3.60;;;18.60;81.40;;;;;;5028969;27;20111;-71
2022/06/09 08:44:06;;;;;;;10.52;4.25;;;18.70;81.10;;;;;;5028588;27;20034;-71
2022/06/09 08:46:49;;;;;;;12.80;3.95;;;18.70;80.80;;;;;;5028427;27;20026;-71
2022/06/09 08:49:28;;;;;;;15.32;4.60;;;18.80;80.40;;;;;;5024014;27;20059;-71
2022/06/09 08:52:00;;;;;;;11.02;3.40;;;18.80;79.80;;;;;;5031793;28;20052;-71
2022/06/09 08:54:36;;;;;;;12.45;4.63;;;18.80;79.60;;;;;;5025367;27;20536;-71
2022/06/09 08:57:11;;;;;;;8.85;3.05;;;18.90;79.60;;;;;;5045326;27;20033;-71
2022/06/09 08:59:39;;;;;;;13.07;3.42;;;18.90;79.00;;;;;;5029571;27;20031;-71
2022/06/09 09:02:27;;;;;;;12.43;2.95;;;18.90;78.80;;;;;;5025150;28;20037;-71
2022/06/09 09:05:16;;;;;;;5.90;3.63;;;19.00;78.40;;;;;;5049667;27;20038;-71
2022/06/09 09:07:47;;;;;;;10.50;3.78;;;19.00;77.80;;;;;;5023162;27;20132;-71
2022/06/09 09:10:26;;;;;;;8.23;2.65;;;19.10;77.20;;;;;;5028911;27;20056;-71
2022/06/09 09:12:55;;;;;;;8.20;2.60;;;19.10;77.60;;;;;;5024685;27;20057;-71
2022/06/09 09:15:30;;;;;;;7.38;3.35;;;19.20;76.50;;;;;;5047585;27;20053;-72
2022/06/09 09:18:38;;;;;;;14.50;3.15;;;19.20;76.40;;;;;;5029133;27;20133;-72
2022/06/09 09:21:13;;;;;;;6.18;2.90;;;19.30;76.10;;;;;;5035937;28;20045;-71
2022/06/09 09:23:44;;;;;;;;;;;19.30;75.80;;;;;;5032416;27;20027;-72
2022/06/09 09:26:38;;;;;;;8.35;2.15;;;19.40;75.70;;;;;;5027250;28;19992;-71
2022/06/09 09:29:33;;;;;;;6.32;2.83;;;19.40;75.20;;;;;;5034019;28;20420;-72
2022/06/09 09:32:13;;;;;;;8.43;3.10;;;19.50;74.90;;;;;;5040953;28;20039;-71
2022/06/09 09:34:44;;;;;;;10.23;2.85;;;19.50;74.50;;;;;;5025246;27;20254;-71
2022/06/09 09:37:28;;;;;;;12.43;3.38;;;19.50;73.80;;;;;;5025027;28;20468;-71
2022/06/09 09:39:59;;;;;;;15.32;2.95;;;19.60;73.50;;;;;;5023477;28;20090;-71
2022/06/09 09:42:30;;;;;;;15.57;2.63;;;19.60;73.20;;;;;;5065756;27;20065;-72
2022/06/09 09:45:11;;;;;;;11.25;2.70;;;19.70;72.90;;;;;;5022511;28;20592;-71
2022/06/09 09:47:49;;;;;;;9.45;2.70;;;19.70;72.50;;;;;;5037810;28;20333;-72
2022/06/09 09:50:37;;;;;;;8.43;2.47;;;19.70;72.00;;;;;;5019873;28;20091;-71
2022/06/09 09:53:19;;;;;;;7.13;2.65;;;19.80;71.70;;;;;;5039918;28;20078;-71
2022/06/09 09:55:55;;;;;;;7.80;1.92;;;19.80;70.90;;;;;;5032556;28;20090;-72
2022/06/09 09:58:27;;;;;;;11.68;2.63;;;19.90;69.90;;;;;;5027738;28;20376;-71
2022/06/09 10:00:58;;;;;;;7.15;2.22;;;19.90;69.60;;;;;;5031348;28;20503;-72
2022/06/09 10:08:35;;;;;;;5.05;1.70;;;20.00;68.70;;;;;;5028920;28;20049;-71
2022/06/09 10:09:26;;;;;;;11.63;3.05;;;20.00;68.40;;;;;;5023165;28;20076;-72
2022/06/09 10:12:03;;;;;;;10.65;2.78;;;20.10;67.90;;;;;;5027510;28;20052;-72
2022/06/09 10:14:56;;;;;;;10.57;2.53;;;20.10;68.10;;;;;;5025793;28;20022;-71
2022/06/09 10:17:50;;;;;;;27.92;4.45;;;20.20;68.00;;;;;;5020099;28;20495;-72
2022/06/09 10:20:38;;;;;;;9.45;2.22;;;20.30;68.20;;;;;;5025970;28;20087;-71
2022/06/09 10:23:11;;;;;;;18.27;2.13;;;20.30;68.70;;;;;;5027143;27;20572;-71
2022/06/09 10:25:44;;;;;;;7.90;2.45;;;20.40;68.50;;;;;;5029551;27;20117;-71
2022/06/09 10:28:32;;;;;;;8.32;3.28;;;20.50;67.50;;;;;;5026713;27;20026;-71
2022/06/09 10:31:10;;;;;;;8.80;2.00;;;20.50;66.80;;;;;;5022417;27;20029;-71
2022/06/09 10:33:38;;;;;;;8.10;1.95;;;20.60;66.20;;;;;;5049927;27;20021;-71
2022/06/09 10:36:22;;;;;;;4.47;2.22;;;20.60;65.30;;;;;;5026461;27;20515;-71
2022/06/09 10:38:55;;;;;;;11.70;2.78;;;20.60;64.40;;;;;;5025984;27;20489;-71
2022/06/09 10:41:59;;;;;;;13.07;2.28;;;20.60;63.60;;;;;;5047465;27;20053;-72
2022/06/09 10:44:39;;;;;;;5.00;1.88;;;20.70;63.30;;;;;;5051071;27;20162;-71
2022/06/09 10:56:18;;;;;;;7.80;1.88;;;20.90;61.70;;;;;;5018715;27;20037;-71
2022/06/09 10:59:00;;;;;;;4.70;1.45;;;20.90;61.10;;;;;;5025111;27;20057;-71
2022/06/09 11:01:32;;;;;;;4.43;1.90;;;20.90;61.30;;;;;;5031848;27;20029;-71
2022/06/09 11:04:01;;;;;;;6.25;2.13;;;21.00;61.60;;;;;;5022856;27;20025;-71
2022/06/09 11:06:37;;;;;;;5.40;1.92;;;21.00;61.50;;;;;;5045417;27;20029;-71
2022/06/09 11:09:33;;;;;;;13.82;3.28;;;21.10;61.40;;;;;;5034118;27;20392;-71
2022/06/09 11:12:09;;;;;;;;;;;21.10;61.00;;;;;;5021029;27;20731;-71
2022/06/09 11:15:02;;;;;;;33.10;13.40;;;21.10;61.70;;;;;;5060870;27;20392;-71
2022/06/09 11:18:02;;;;;;;55.60;29.40;;;21.20;62.30;;;;;;5026788;27;20121;-71
2022/06/09 11:20:49;;;;;;;38.58;21.30;;;21.20;62.30;;;;;;5028754;27;20133;-71
2022/06/09 11:23:34;;;;;;;24.33;11.73;;;21.20;62.00;;;;;;5041326;28;20705;-71
2022/06/09 11:26:14;;;;;;;21.85;9.73;;;21.30;61.10;;;;;;5023051;27;20050;-71
2022/06/09 11:29:32;;;;;;;12.63;6.68;;;21.30;60.80;;;;;;5034121;27;20031;-71
2022/06/09 11:32:14;;;;;;;14.85;6.05;;;21.40;61.10;;;;;;5047312;27;20044;-71
2022/06/09 11:35:16;;;;;;;12.55;5.18;;;21.40;60.70;;;;;;5029423;28;20544;-71
2022/06/09 11:38:07;;;;;;;18.88;5.03;;;21.40;60.90;;;;;;5047311;27;20044;-70
2022/06/09 11:41:06;;;;;;;16.40;4.13;;;21.40;60.80;;;;;;5028717;27;20063;-71
2022/06/09 11:43:55;;;;;;;10.02;4.45;;;21.50;60.90;;;;;;5034005;27;20034;-71
2022/06/09 11:46:35;;;;;;;7.25;3.15;;;21.50;61.20;;;;;;5033615;27;20042;-71
2022/06/09 11:49:39;;;;;;;7.80;3.97;;;21.60;61.10;;;;;;5020789;27;20061;-70
2022/06/09 11:52:09;;;;;;;10.05;3.53;;;21.60;61.50;;;;;;5029717;27;20113;-71
2022/06/09 11:54:51;;;;;;;16.25;3.92;;;21.70;61.40;;;;;;5016955;27;20117;-71
2022/06/09 11:57:19;;;;;;;12.05;3.95;;;21.70;61.40;;;;;;5027061;27;20040;-71
2022/06/09 12:00:18;;;;;;;13.45;3.65;;;21.70;61.70;;;;;;5026106;27;20030;-71
2022/06/09 12:02:57;;;;;;;11.32;4.13;;;21.80;61.40;;;;;;5030389;27;20037;-70
2022/06/09 12:06:14;;;;;;;10.43;6.05;;;21.80;61.10;;;;;;5030932;27;20045;-71
2022/06/09 12:09:16;;;;;;;10.55;3.78;;;21.80;61.40;;;;;;5048411;27;20465;-71
2022/06/09 12:12:03;;;;;;;12.18;4.90;;;21.90;61.20;;;;;;5035174;27;20034;-71
2022/06/09 12:14:36;;;;;;;8.07;3.72;;;21.90;61.20;;;;;;5031412;27;20022;-71
2022/06/09 12:17:17;;;;;;;11.07;4.38;;;21.90;61.00;;;;;;5021263;28;20068;-71
2022/06/09 12:19:59;;;;;;;12.40;4.40;;;21.90;61.10;;;;;;5029769;27;20498;-72
2022/06/09 12:22:41;;;;;;;15.80;5.20;;;21.90;61.30;;;;;;5036599;27;20045;-71
2022/06/09 12:25:10;;;;;;;12.85;4.70;;;21.90;61.30;;;;;;5023785;27;20046;-71
2022/06/09 12:27:37;;;;;;;12.55;6.10;;;21.90;61.40;;;;;;5027566;27;20085;-71
2022/06/09 12:30:03;;;;;;;16.77;6.45;;;21.90;61.00;;;;;;5026678;27;20511;-71
2022/06/09 12:32:42;;;;;;;19.60;6.90;;;21.90;61.30;;;;;;5034060;27;20057;-71
2022/06/09 12:35:21;;;;;;;16.33;5.63;;;21.90;61.40;;;;;;5028919;27;20037;-71
2022/06/09 12:37:58;;;;;;;12.80;6.47;;;21.90;61.20;;;;;;5026687;27;20511;-71
2022/06/09 12:40:39;;;;;;;13.38;5.90;;;21.90;61.20;;;;;;5020419;27;20038;-71
2022/06/09 12:43:18;;;;;;;9.75;5.43;;;21.90;61.30;;;;;;5043297;27;20029;-71
2022/06/09 12:46:19;;;;;;;10.20;4.13;;;21.90;61.00;;;;;;5030034;28;20045;-72
2022/06/09 12:48:46;;;;;;;17.55;6.38;;;21.90;60.60;;;;;;5022882;27;20533;-71
2022/06/09 12:51:28;;;;;;;11.15;5.20;;;21.90;60.60;;;;;;5022805;28;20029;-71
2022/06/09 12:54:18;;;;;;;14.65;5.45;;;21.90;60.60;;;;;;5022611;27;20361;-71
2022/06/09 12:57:06;;;;;;;14.60;6.03;;;21.90;60.70;;;;;;5034224;27;20473;-71
2022/06/09 12:59:38;;;;;;;22.95;7.22;;;21.80;60.70;;;;;;5032871;27;20030;-71
2022/06/09 13:02:26;;;;;;;28.10;7.18;;;21.90;61.00;;;;;;5023667;27;20560;-71
2022/06/09 13:05:15;;;;;;;21.25;7.03;;;21.90;61.40;;;;;;5022129;27;20087;-71
2022/06/09 13:08:13;;;;;;;18.65;7.55;;;21.90;61.20;;;;;;5024109;27;20029;-71
2022/06/09 13:10:43;;;;;;;14.60;9.52;;;21.90;60.70;;;;;;5032172;27;20110;-71
2022/06/09 13:13:39;;;;;;;17.90;7.53;;;21.80;60.50;;;;;;5043060;27;20444;-71
2022/06/09 13:16:27;;;;;;;18.23;8.82;;;21.90;60.30;;;;;;5033196;28;20116;-71
2022/06/09 13:18:58;;;;;;;19.48;10.05;;;21.90;60.30;;;;;;5036726;27;20073;-71
2022/06/09 13:21:36;;;;;;;19.17;9.68;;;21.80;60.50;;;;;;5025482;28;20041;-71
2022/06/09 13:24:07;;;;;;;19.45;10.07;;;21.80;60.40;;;;;;5022612;28;20033;-71